sensor_id;sensor_type;location;lat;lon;timestamp;temperature;humidity
52058;DHT22;38063;53.210;6.504;2023-11-19T00:02:20;10.70;99.90
52058;DHT22;38063;53.210;6.504;2023-11-19T00:04:46;10.80;99.90
52058;DHT22;38063;53.210;6.504;2023-11-19T00:07:11;10.80;99.90
52058;DHT22;38063;53.210;6.504;2023-11-19T00:09:39;10.90;99.90
52058;DHT22;38063;53.210;6.504;2023-11-19T00:12:06;11.00;99.90
52058;DHT22;38063;53.210;6.504;2023-11-19T00:14:32;11.10;99.90
52058;DHT22;38063;53.210;6.504;2023-11-19T00:16:57;11.30;99.90
52058;DHT22;38063;53.210;6.504;2023-11-19T00:19:23;11.20;99.90
52058;DHT22;38063;53.210;6.504;2023-11-19T00:21:49;11.30;99.90
52058;DHT22;38063;53.210;6.504;2023-11-19T00:24:14;11.20;99.90
52058;DHT22;38063;53.210;6.504;2023-11-19T00:26:42;11.30;99.90
52058;DHT22;38063;53.210;6.504;2023-11-19T00:29:08;11.40;99.90
52058;DHT22;38063;53.210;6.504;2023-11-19T00:31:34;11.30;99.90
52058;DHT22;38063;53.210;6.504;2023-11-19T00:34:00;11.30;99.90
52058;DHT22;38063;53.210;6.504;2023-11-19T00:36:27;11.40;99.90
52058;DHT22;38063;53.210;6.504;2023-11-19T00:38:53;11.40;99.90
52058;DHT22;38063;53.210;6.504;2023-11-19T00:41:19;11.40;99.90
52058;DHT22;38063;53.210;6.504;2023-11-19T00:43:45;11.50;99.90
52058;DHT22;38063;53.210;6.504;2023-11-19T00:46:10;11.50;99.90
52058;DHT22;38063;53.210;6.504;2023-11-19T00:48:37;11.60;99.90
52058;DHT22;38063;53.210;6.504;2023-11-19T00:51:03;11.50;99.90
52058;DHT22;38063;53.210;6.504;2023-11-19T00:53:30;11.60;99.90
52058;DHT22;38063;53.210;6.504;2023-11-19T00:55:55;11.50;99.90
52058;DHT22;38063;53.210;6.504;2023-11-19T00:58:21;11.60;99.90
52058;DHT22;38063;53.210;6.504;2023-11-19T01:00:47;11.60;99.90
52058;DHT22;38063;53.210;6.504;2023-11-19T01:03:13;11.60;99.90
52058;DHT22;38063;53.210;6.504;2023-11-19T01:05:40;11.60;99.90
52058;DHT22;38063;53.210;6.504;2023-11-19T01:08:06;11.60;99.90
52058;DHT22;38063;53.210;6.504;2023-11-19T01:10:32;11.60;99.90
52058;DHT22;38063;53.210;6.504;2023-11-19T01:12:58;11.80;99.90
52058;DHT22;38063;53.210;6.504;2023-11-19T01:15:24;11.60;99.90
52058;DHT22;38063;53.210;6.504;2023-11-19T01:17:49;11.60;99.90
52058;DHT22;38063;53.210;6.504;2023-11-19T01:20:15;11.60;99.90
52058;DHT22;38063;53.210;6.504;2023-11-19T01:22:41;11.60;99.90
52058;DHT22;38063;53.210;6.504;2023-11-19T01:25:07;11.60;99.90
52058;DHT22;38063;53.210;6.504;2023-11-19T01:27:33;11.60;99.90
52058;DHT22;38063;53.210;6.504;2023-11-19T01:30:02;12.00;99.90
52058;DHT22;38063;53.210;6.504;2023-11-19T01:32:35;11.60;99.90
52058;DHT22;38063;53.210;6.504;2023-11-19T01:35:03;11.70;99.90
52058;DHT22;38063;53.210;6.504;2023-11-19T01:37:28;11.60;99.90
52058;DHT22;38063;53.210;6.504;2023-11-19T01:39:54;11.60;99.90
52058;DHT22;38063;53.210;6.504;2023-11-19T01:42:20;11.70;99.90
52058;DHT22;38063;53.210;6.504;2023-11-19T01:44:58;11.60;99.90
52058;DHT22;38063;53.210;6.504;2023-11-19T01:47:24;11.60;99.90
52058;DHT22;38063;53.210;6.504;2023-11-19T01:49:50;11.60;99.90
52058;DHT22;38063;53.210;6.504;2023-11-19T01:52:16;11.60;99.90
52058;DHT22;38063;53.210;6.504;2023-11-19T01:54:42;11.60;99.90
52058;DHT22;38063;53.210;6.504;2023-11-19T01:57:08;11.80;99.90
52058;DHT22;38063;53.210;6.504;2023-11-19T01:59:34;11.60;99.90
52058;DHT22;38063;53.210;6.504;2023-11-19T02:02:00;11.50;99.90
52058;DHT22;38063;53.210;6.504;2023-11-19T02:04:26;11.60;99.90
52058;DHT22;38063;53.210;6.504;2023-11-19T02:06:54;11.60;99.90
52058;DHT22;38063;53.210;6.504;2023-11-19T02:09:21;11.60;99.90
52058;DHT22;38063;53.210;6.504;2023-11-19T02:11:47;11.80;99.90
52058;DHT22;38063;53.210;6.504;2023-11-19T02:14:17;11.60;99.90
52058;DHT22;38063;53.210;6.504;2023-11-19T02:16:43;11.60;99.90
52058;DHT22;38063;53.210;6.504;2023-11-19T02:19:09;11.60;99.90
52058;DHT22;38063;53.210;6.504;2023-11-19T02:21:36;11.50;99.90
52058;DHT22;38063;53.210;6.504;2023-11-19T02:24:06;11.50;99.90
52058;DHT22;38063;53.210;6.504;2023-11-19T02:26:36;11.50;99.90
52058;DHT22;38063;53.210;6.504;2023-11-19T02:29:04;11.50;99.90
52058;DHT22;38063;53.210;6.504;2023-11-19T02:31:32;11.50;99.90
52058;DHT22;38063;53.210;6.504;2023-11-19T02:33:59;11.50;99.90
52058;DHT22;38063;53.210;6.504;2023-11-19T02:36:25;11.50;99.90
52058;DHT22;38063;53.210;6.504;2023-11-19T02:38:51;11.50;99.90
52058;DHT22;38063;53.210;6.504;2023-11-19T02:41:16;11.50;99.90
52058;DHT22;38063;53.210;6.504;2023-11-19T02:43:42;11.40;99.90
52058;DHT22;38063;53.210;6.504;2023-11-19T02:46:08;11.50;99.90
52058;DHT22;38063;53.210;6.504;2023-11-19T02:48:34;11.40;99.90
52058;DHT22;38063;53.210;6.504;2023-11-19T02:51:01;11.40;99.90
52058;DHT22;38063;53.210;6.504;2023-11-19T02:53:29;11.40;99.90
52058;DHT22;38063;53.210;6.504;2023-11-19T02:55:55;11.40;99.90
52058;DHT22;38063;53.210;6.504;2023-11-19T02:58:27;11.40;99.90
52058;DHT22;38063;53.210;6.504;2023-11-19T03:00:54;11.40;99.90
52058;DHT22;38063;53.210;6.504;2023-11-19T03:03:26;11.30;99.90
52058;DHT22;38063;53.210;6.504;2023-11-19T03:06:04;11.40;99.90
52058;DHT22;38063;53.210;6.504;2023-11-19T03:08:30;11.30;99.90
52058;DHT22;38063;53.210;6.504;2023-11-19T03:10:56;11.30;99.90
52058;DHT22;38063;53.210;6.504;2023-11-19T03:13:21;11.30;99.90
52058;DHT22;38063;53.210;6.504;2023-11-19T03:15:47;11.70;99.90
52058;DHT22;38063;53.210;6.504;2023-11-19T03:18:13;11.30;99.90
52058;DHT22;38063;53.210;6.504;2023-11-19T03:20:39;11.30;99.90
52058;DHT22;38063;53.210;6.504;2023-11-19T03:23:05;11.20;99.90
52058;DHT22;38063;53.210;6.504;2023-11-19T03:25:32;11.30;99.90
52058;DHT22;38063;53.210;6.504;2023-11-19T03:28:02;11.20;99.90
52058;DHT22;38063;53.210;6.504;2023-11-19T03:30:28;11.30;99.90
52058;DHT22;38063;53.210;6.504;2023-11-19T03:32:55;11.40;99.90
52058;DHT22;38063;53.210;6.504;2023-11-19T03:35:21;11.50;99.90
52058;DHT22;38063;53.210;6.504;2023-11-19T03:37:47;11.30;99.90
52058;DHT22;38063;53.210;6.504;2023-11-19T03:40:13;11.30;99.90
52058;DHT22;38063;53.210;6.504;2023-11-19T03:42:40;11.30;99.90
52058;DHT22;38063;53.210;6.504;2023-11-19T03:45:06;11.30;99.90
52058;DHT22;38063;53.210;6.504;2023-11-19T03:47:34;11.30;99.90
52058;DHT22;38063;53.210;6.504;2023-11-19T03:50:00;11.30;99.90
52058;DHT22;38063;53.210;6.504;2023-11-19T03:52:26;11.30;99.90
52058;DHT22;38063;53.210;6.504;2023-11-19T03:54:55;11.30;99.90
52058;DHT22;38063;53.210;6.504;2023-11-19T03:57:22;11.30;99.90
52058;DHT22;38063;53.210;6.504;2023-11-19T03:59:48;11.40;99.90
52058;DHT22;38063;53.210;6.504;2023-11-19T04:02:13;11.30;99.90
52058;DHT22;38063;53.210;6.504;2023-11-19T04:04:39;11.30;99.90
52058;DHT22;38063;53.210;6.504;2023-11-19T04:07:05;11.30;99.90
52058;DHT22;38063;53.210;6.504;2023-11-19T04:09:31;11.30;99.90
52058;DHT22;38063;53.210;6.504;2023-11-19T04:11:59;11.30;99.90
52058;DHT22;38063;53.210;6.504;2023-11-19T04:14:26;11.30;99.90
52058;DHT22;38063;53.210;6.504;2023-11-19T04:16:52;11.30;99.90
52058;DHT22;38063;53.210;6.504;2023-11-19T04:19:21;11.30;99.90
52058;DHT22;38063;53.210;6.504;2023-11-19T04:21:47;11.30;99.90
52058;DHT22;38063;53.210;6.504;2023-11-19T04:24:13;11.40;99.90
52058;DHT22;38063;53.210;6.504;2023-11-19T04:26:43;11.30;99.90
52058;DHT22;38063;53.210;6.504;2023-11-19T04:29:12;11.40;99.90
52058;DHT22;38063;53.210;6.504;2023-11-19T04:31:38;11.30;99.90
52058;DHT22;38063;53.210;6.504;2023-11-19T04:34:05;11.30;99.90
52058;DHT22;38063;53.210;6.504;2023-11-19T04:36:32;11.50;99.90
52058;DHT22;38063;53.210;6.504;2023-11-19T04:38:59;11.40;99.90
52058;DHT22;38063;53.210;6.504;2023-11-19T04:41:25;11.40;99.90
52058;DHT22;38063;53.210;6.504;2023-11-19T04:43:53;11.40;99.90
52058;DHT22;38063;53.210;6.504;2023-11-19T04:46:19;11.50;99.90
52058;DHT22;38063;53.210;6.504;2023-11-19T04:48:44;11.50;99.90
52058;DHT22;38063;53.210;6.504;2023-11-19T04:51:10;11.40;99.90
52058;DHT22;38063;53.210;6.504;2023-11-19T04:53:36;11.40;99.90
52058;DHT22;38063;53.210;6.504;2023-11-19T04:56:11;11.40;99.90
52058;DHT22;38063;53.210;6.504;2023-11-19T04:58:37;11.40;99.90
52058;DHT22;38063;53.210;6.504;2023-11-19T05:01:03;11.40;99.90
52058;DHT22;38063;53.210;6.504;2023-11-19T05:03:30;11.30;99.90
52058;DHT22;38063;53.210;6.504;2023-11-19T05:05:57;11.40;99.90
52058;DHT22;38063;53.210;6.504;2023-11-19T05:08:22;11.40;99.90
52058;DHT22;38063;53.210;6.504;2023-11-19T05:10:48;11.40;99.90
52058;DHT22;38063;53.210;6.504;2023-11-19T05:13:13;11.40;99.90
52058;DHT22;38063;53.210;6.504;2023-11-19T05:15:40;11.40;99.90
52058;DHT22;38063;53.210;6.504;2023-11-19T05:18:06;11.50;99.90
52058;DHT22;38063;53.210;6.504;2023-11-19T05:20:32;11.60;99.90
52058;DHT22;38063;53.210;6.504;2023-11-19T05:22:58;11.40;99.90
52058;DHT22;38063;53.210;6.504;2023-11-19T05:25:26;11.40;99.90
52058;DHT22;38063;53.210;6.504;2023-11-19T05:27:52;11.40;99.90
52058;DHT22;38063;53.210;6.504;2023-11-19T05:30:18;11.40;99.90
52058;DHT22;38063;53.210;6.504;2023-11-19T05:32:43;11.40;99.90
52058;DHT22;38063;53.210;6.504;2023-11-19T05:35:10;11.40;99.90
52058;DHT22;38063;53.210;6.504;2023-11-19T05:37:36;11.50;99.90
52058;DHT22;38063;53.210;6.504;2023-11-19T05:40:02;11.40;99.90
52058;DHT22;38063;53.210;6.504;2023-11-19T05:42:29;11.40;99.90
52058;DHT22;38063;53.210;6.504;2023-11-19T05:44:55;11.40;99.90
52058;DHT22;38063;53.210;6.504;2023-11-19T05:47:20;11.40;99.90
52058;DHT22;38063;53.210;6.504;2023-11-19T05:49:46;11.40;99.90
52058;DHT22;38063;53.210;6.504;2023-11-19T05:52:12;11.40;99.90
52058;DHT22;38063;53.210;6.504;2023-11-19T05:54:38;11.40;99.90
52058;DHT22;38063;53.210;6.504;2023-11-19T05:57:07;11.30;99.90
52058;DHT22;38063;53.210;6.504;2023-11-19T05:59:35;11.30;99.90
52058;DHT22;38063;53.210;6.504;2023-11-19T06:02:02;11.40;99.90
52058;DHT22;38063;53.210;6.504;2023-11-19T06:04:28;11.30;99.90
52058;DHT22;38063;53.210;6.504;2023-11-19T06:06:54;11.30;99.90
52058;DHT22;38063;53.210;6.504;2023-11-19T06:09:22;11.20;99.90
52058;DHT22;38063;53.210;6.504;2023-11-19T06:11:51;11.20;99.90
52058;DHT22;38063;53.210;6.504;2023-11-19T06:14:18;11.20;99.90
52058;DHT22;38063;53.210;6.504;2023-11-19T06:16:44;11.20;99.90
52058;DHT22;38063;53.210;6.504;2023-11-19T06:19:09;11.20;99.90
52058;DHT22;38063;53.210;6.504;2023-11-19T06:21:36;11.20;99.90
52058;DHT22;38063;53.210;6.504;2023-11-19T06:24:02;11.20;99.90
52058;DHT22;38063;53.210;6.504;2023-11-19T06:26:28;11.20;99.90
52058;DHT22;38063;53.210;6.504;2023-11-19T06:28:54;11.10;99.90
52058;DHT22;38063;53.210;6.504;2023-11-19T06:31:20;11.10;99.90
52058;DHT22;38063;53.210;6.504;2023-11-19T06:33:46;11.10;99.90
52058;DHT22;38063;53.210;6.504;2023-11-19T06:36:14;11.20;99.90
52058;DHT22;38063;53.210;6.504;2023-11-19T06:38:42;11.00;99.90
52058;DHT22;38063;53.210;6.504;2023-11-19T06:41:08;11.00;99.90
52058;DHT22;38063;53.210;6.504;2023-11-19T06:43:37;11.00;99.90
52058;DHT22;38063;53.210;6.504;2023-11-19T06:46:03;11.00;99.90
52058;DHT22;38063;53.210;6.504;2023-11-19T06:48:32;11.00;99.90
52058;DHT22;38063;53.210;6.504;2023-11-19T06:50:58;11.00;99.90
52058;DHT22;38063;53.210;6.504;2023-11-19T06:53:23;11.00;99.90
52058;DHT22;38063;53.210;6.504;2023-11-19T06:55:49;11.00;99.90
52058;DHT22;38063;53.210;6.504;2023-11-19T06:58:14;11.00;99.90
52058;DHT22;38063;53.210;6.504;2023-11-19T07:00:40;10.90;99.90
52058;DHT22;38063;53.210;6.504;2023-11-19T07:03:06;10.90;99.90
52058;DHT22;38063;53.210;6.504;2023-11-19T07:05:36;10.90;99.90
52058;DHT22;38063;53.210;6.504;2023-11-19T07:08:04;10.90;99.90
52058;DHT22;38063;53.210;6.504;2023-11-19T07:10:31;10.90;99.90
52058;DHT22;38063;53.210;6.504;2023-11-19T07:12:56;10.90;99.90
52058;DHT22;38063;53.210;6.504;2023-11-19T07:15:23;10.90;99.90
52058;DHT22;38063;53.210;6.504;2023-11-19T07:17:48;10.80;99.90
52058;DHT22;38063;53.210;6.504;2023-11-19T07:20:14;10.80;99.90
52058;DHT22;38063;53.210;6.504;2023-11-19T07:22:43;10.80;99.90
52058;DHT22;38063;53.210;6.504;2023-11-19T07:25:08;10.70;99.90
52058;DHT22;38063;53.210;6.504;2023-11-19T07:27:34;10.70;99.90
52058;DHT22;38063;53.210;6.504;2023-11-19T07:30:00;10.70;99.90
52058;DHT22;38063;53.210;6.504;2023-11-19T07:32:25;10.70;99.90
52058;DHT22;38063;53.210;6.504;2023-11-19T07:34:51;10.70;99.90
52058;DHT22;38063;53.210;6.504;2023-11-19T07:37:16;10.70;99.90
52058;DHT22;38063;53.210;6.504;2023-11-19T07:39:42;10.70;99.90
52058;DHT22;38063;53.210;6.504;2023-11-19T07:42:08;10.60;99.90
52058;DHT22;38063;53.210;6.504;2023-11-19T07:44:34;10.70;99.90
52058;DHT22;38063;53.210;6.504;2023-11-19T07:47:00;10.70;99.90
52058;DHT22;38063;53.210;6.504;2023-11-19T07:49:26;10.90;99.90
52058;DHT22;38063;53.210;6.504;2023-11-19T07:51:51;10.70;99.90
52058;DHT22;38063;53.210;6.504;2023-11-19T07:54:18;10.70;99.90
52058;DHT22;38063;53.210;6.504;2023-11-19T07:56:43;10.70;99.90
52058;DHT22;38063;53.210;6.504;2023-11-19T07:59:09;10.70;99.90
52058;DHT22;38063;53.210;6.504;2023-11-19T08:01:35;10.80;99.90
52058;DHT22;38063;53.210;6.504;2023-11-19T08:04:04;10.80;99.90
52058;DHT22;38063;53.210;6.504;2023-11-19T08:06:29;10.80;99.90
52058;DHT22;38063;53.210;6.504;2023-11-19T08:08:55;10.80;99.90
52058;DHT22;38063;53.210;6.504;2023-11-19T08:11:21;10.80;99.90
52058;DHT22;38063;53.210;6.504;2023-11-19T08:13:46;10.80;99.90
52058;DHT22;38063;53.210;6.504;2023-11-19T08:16:12;10.80;99.90
52058;DHT22;38063;53.210;6.504;2023-11-19T08:18:40;10.80;99.90
52058;DHT22;38063;53.210;6.504;2023-11-19T08:21:06;10.80;99.90
52058;DHT22;38063;53.210;6.504;2023-11-19T08:23:32;10.80;99.90
52058;DHT22;38063;53.210;6.504;2023-11-19T08:25:57;10.80;99.90
52058;DHT22;38063;53.210;6.504;2023-11-19T08:28:23;10.80;99.90
52058;DHT22;38063;53.210;6.504;2023-11-19T08:30:49;10.80;99.90
52058;DHT22;38063;53.210;6.504;2023-11-19T08:33:14;10.80;99.90
52058;DHT22;38063;53.210;6.504;2023-11-19T08:35:40;11.70;99.90
52058;DHT22;38063;53.210;6.504;2023-11-19T08:38:06;10.80;99.90
52058;DHT22;38063;53.210;6.504;2023-11-19T08:40:32;10.90;99.90
52058;DHT22;38063;53.210;6.504;2023-11-19T08:42:57;11.30;99.90
52058;DHT22;38063;53.210;6.504;2023-11-19T08:45:23;10.90;99.90
52058;DHT22;38063;53.210;6.504;2023-11-19T08:47:49;10.90;99.90
52058;DHT22;38063;53.210;6.504;2023-11-19T08:50:14;10.80;99.90
52058;DHT22;38063;53.210;6.504;2023-11-19T08:52:40;10.90;99.90
52058;DHT22;38063;53.210;6.504;2023-11-19T08:55:06;10.90;99.90
52058;DHT22;38063;53.210;6.504;2023-11-19T08:57:32;10.90;99.90
52058;DHT22;38063;53.210;6.504;2023-11-19T09:00:00;10.80;99.90
52058;DHT22;38063;53.210;6.504;2023-11-19T09:02:26;10.90;99.90
52058;DHT22;38063;53.210;6.504;2023-11-19T09:04:52;10.90;99.90
52058;DHT22;38063;53.210;6.504;2023-11-19T09:07:17;10.90;99.90
52058;DHT22;38063;53.210;6.504;2023-11-19T09:09:43;10.90;99.90
52058;DHT22;38063;53.210;6.504;2023-11-19T09:12:09;10.90;99.90
52058;DHT22;38063;53.210;6.504;2023-11-19T09:14:34;10.90;99.90
52058;DHT22;38063;53.210;6.504;2023-11-19T09:17:00;10.90;99.90
52058;DHT22;38063;53.210;6.504;2023-11-19T09:19:26;11.00;99.90
52058;DHT22;38063;53.210;6.504;2023-11-19T09:21:52;11.00;99.90
52058;DHT22;38063;53.210;6.504;2023-11-19T09:24:21;11.00;99.90
52058;DHT22;38063;53.210;6.504;2023-11-19T09:26:47;11.00;99.90
52058;DHT22;38063;53.210;6.504;2023-11-19T09:29:12;11.00;99.90
52058;DHT22;38063;53.210;6.504;2023-11-19T09:31:40;11.00;99.90
52058;DHT22;38063;53.210;6.504;2023-11-19T09:34:05;11.20;99.90
52058;DHT22;38063;53.210;6.504;2023-11-19T09:36:32;11.10;99.90
52058;DHT22;38063;53.210;6.504;2023-11-19T09:38:58;11.10;99.90
52058;DHT22;38063;53.210;6.504;2023-11-19T09:41:26;11.10;99.90
52058;DHT22;38063;53.210;6.504;2023-11-19T09:43:55;11.20;99.90
52058;DHT22;38063;53.210;6.504;2023-11-19T09:46:21;11.20;99.90
52058;DHT22;38063;53.210;6.504;2023-11-19T09:48:52;11.30;99.90
52058;DHT22;38063;53.210;6.504;2023-11-19T09:51:20;11.30;99.90
52058;DHT22;38063;53.210;6.504;2023-11-19T09:53:46;11.30;99.90
52058;DHT22;38063;53.210;6.504;2023-11-19T09:56:12;11.40;99.90
52058;DHT22;38063;53.210;6.504;2023-11-19T09:58:38;11.40;99.90
52058;DHT22;38063;53.210;6.504;2023-11-19T10:01:04;11.70;99.90
52058;DHT22;38063;53.210;6.504;2023-11-19T10:03:34;11.50;99.90
52058;DHT22;38063;53.210;6.504;2023-11-19T10:06:07;11.60;99.90
52058;DHT22;38063;53.210;6.504;2023-11-19T10:08:33;11.60;99.90
52058;DHT22;38063;53.210;6.504;2023-11-19T10:10:59;11.60;99.90
52058;DHT22;38063;53.210;6.504;2023-11-19T10:13:29;11.70;99.90
52058;DHT22;38063;53.210;6.504;2023-11-19T10:15:56;11.70;99.90
52058;DHT22;38063;53.210;6.504;2023-11-19T10:18:26;11.70;99.90
52058;DHT22;38063;53.210;6.504;2023-11-19T10:20:52;11.70;99.90
52058;DHT22;38063;53.210;6.504;2023-11-19T10:23:18;11.80;99.90
52058;DHT22;38063;53.210;6.504;2023-11-19T10:25:44;11.80;99.90
52058;DHT22;38063;53.210;6.504;2023-11-19T10:28:10;11.80;99.90
52058;DHT22;38063;53.210;6.504;2023-11-19T10:30:36;11.80;99.90
52058;DHT22;38063;53.210;6.504;2023-11-19T10:33:06;11.80;99.90
52058;DHT22;38063;53.210;6.504;2023-11-19T10:35:33;11.70;99.90
52058;DHT22;38063;53.210;6.504;2023-11-19T10:38:15;11.70;99.90
52058;DHT22;38063;53.210;6.504;2023-11-19T10:40:41;12.00;99.90
52058;DHT22;38063;53.210;6.504;2023-11-19T10:43:07;11.70;99.90
52058;DHT22;38063;53.210;6.504;2023-11-19T10:45:37;11.70;99.90
52058;DHT22;38063;53.210;6.504;2023-11-19T10:48:04;11.70;99.90
52058;DHT22;38063;53.210;6.504;2023-11-19T10:50:37;11.70;99.90
52058;DHT22;38063;53.210;6.504;2023-11-19T10:53:04;11.70;99.90
52058;DHT22;38063;53.210;6.504;2023-11-19T10:55:32;11.70;99.90
52058;DHT22;38063;53.210;6.504;2023-11-19T10:58:05;11.70;99.90
52058;DHT22;38063;53.210;6.504;2023-11-19T11:03:10;11.80;99.90
52058;DHT22;38063;53.210;6.504;2023-11-19T11:05:37;11.90;99.90
52058;DHT22;38063;53.210;6.504;2023-11-19T11:08:06;11.90;99.90
52058;DHT22;38063;53.210;6.504;2023-11-19T11:10:32;11.90;99.90
52058;DHT22;38063;53.210;6.504;2023-11-19T11:13:03;11.90;99.90
52058;DHT22;38063;53.210;6.504;2023-11-19T11:15:30;11.90;99.90
52058;DHT22;38063;53.210;6.504;2023-11-19T11:18:01;11.90;99.90
52058;DHT22;38063;53.210;6.504;2023-11-19T11:20:33;11.90;99.90
52058;DHT22;38063;53.210;6.504;2023-11-19T11:34:35;11.90;99.90
52058;DHT22;38063;53.210;6.504;2023-11-19T11:37:19;11.90;99.90
52058;DHT22;38063;53.210;6.504;2023-11-19T11:39:47;12.00;99.90
52058;DHT22;38063;53.210;6.504;2023-11-19T11:45:00;12.10;99.90
52058;DHT22;38063;53.210;6.504;2023-11-19T11:47:38;12.10;99.90
52058;DHT22;38063;53.210;6.504;2023-11-19T11:50:14;12.10;99.90
52058;DHT22;38063;53.210;6.504;2023-11-19T11:55:24;12.20;99.90
52058;DHT22;38063;53.210;6.504;2023-11-19T11:57:50;12.10;99.90
52058;DHT22;38063;53.210;6.504;2023-11-19T12:00:41;12.10;99.90
52058;DHT22;38063;53.210;6.504;2023-11-19T12:03:08;12.00;99.90
52058;DHT22;38063;53.210;6.504;2023-11-19T12:05:44;11.90;99.90
52058;DHT22;38063;53.210;6.504;2023-11-19T12:08:11;11.80;99.90
52058;DHT22;38063;53.210;6.504;2023-11-19T12:10:49;11.80;99.90
52058;DHT22;38063;53.210;6.504;2023-11-19T12:13:16;11.80;99.90
52058;DHT22;38063;53.210;6.504;2023-11-19T12:18:27;11.80;99.90
52058;DHT22;38063;53.210;6.504;2023-11-19T12:20:54;11.90;99.90
52058;DHT22;38063;53.210;6.504;2023-11-19T12:23:19;11.80;99.90
52058;DHT22;38063;53.210;6.504;2023-11-19T12:25:45;11.90;99.90
52058;DHT22;38063;53.210;6.504;2023-11-19T12:28:15;11.90;99.90
52058;DHT22;38063;53.210;6.504;2023-11-19T12:30:43;12.00;99.90
52058;DHT22;38063;53.210;6.504;2023-11-19T12:33:10;12.10;99.90
52058;DHT22;38063;53.210;6.504;2023-11-19T12:35:46;12.10;99.90
52058;DHT22;38063;53.210;6.504;2023-11-19T12:38:25;12.20;99.90
52058;DHT22;38063;53.210;6.504;2023-11-19T12:41:08;12.20;99.90
52058;DHT22;38063;53.210;6.504;2023-11-19T12:43:36;12.30;99.90
52058;DHT22;38063;53.210;6.504;2023-11-19T12:46:24;12.30;99.90
52058;DHT22;38063;53.210;6.504;2023-11-19T12:48:51;12.30;99.90
52058;DHT22;38063;53.210;6.504;2023-11-19T12:51:17;12.30;99.90
52058;DHT22;38063;53.210;6.504;2023-11-19T12:53:49;12.30;99.90
52058;DHT22;38063;53.210;6.504;2023-11-19T12:56:15;12.30;99.90
52058;DHT22;38063;53.210;6.504;2023-11-19T12:58:41;12.20;99.90
52058;DHT22;38063;53.210;6.504;2023-11-19T13:01:08;12.30;99.90
52058;DHT22;38063;53.210;6.504;2023-11-19T13:03:38;12.20;99.90
52058;DHT22;38063;53.210;6.504;2023-11-19T13:06:10;12.20;99.90
52058;DHT22;38063;53.210;6.504;2023-11-19T13:08:47;12.50;99.90
52058;DHT22;38063;53.210;6.504;2023-11-19T13:11:35;12.20;99.90
52058;DHT22;38063;53.210;6.504;2023-11-19T13:14:05;12.20;99.90
52058;DHT22;38063;53.210;6.504;2023-11-19T13:16:31;12.10;99.90
52058;DHT22;38063;53.210;6.504;2023-11-19T13:18:58;12.20;99.90
52058;DHT22;38063;53.210;6.504;2023-11-19T13:21:25;12.10;99.90
52058;DHT22;38063;53.210;6.504;2023-11-19T13:23:51;12.10;99.90
52058;DHT22;38063;53.210;6.504;2023-11-19T13:26:16;12.10;99.90
52058;DHT22;38063;53.210;6.504;2023-11-19T13:28:42;12.10;99.90
52058;DHT22;38063;53.210;6.504;2023-11-19T13:31:08;12.00;99.90
52058;DHT22;38063;53.210;6.504;2023-11-19T13:33:34;12.10;99.90
52058;DHT22;38063;53.210;6.504;2023-11-19T13:36:00;12.10;99.90
52058;DHT22;38063;53.210;6.504;2023-11-19T13:38:31;12.00;99.90
52058;DHT22;38063;53.210;6.504;2023-11-19T13:40:58;12.10;99.90
52058;DHT22;38063;53.210;6.504;2023-11-19T13:43:24;12.20;99.90
52058;DHT22;38063;53.210;6.504;2023-11-19T13:45:49;12.00;99.90
52058;DHT22;38063;53.210;6.504;2023-11-19T13:48:16;12.10;99.90
52058;DHT22;38063;53.210;6.504;2023-11-19T13:50:42;12.00;99.90
52058;DHT22;38063;53.210;6.504;2023-11-19T13:53:07;12.10;99.90
52058;DHT22;38063;53.210;6.504;2023-11-19T13:55:33;12.00;99.90
52058;DHT22;38063;53.210;6.504;2023-11-19T13:57:59;12.00;99.90
52058;DHT22;38063;53.210;6.504;2023-11-19T14:00:25;12.00;99.90
52058;DHT22;38063;53.210;6.504;2023-11-19T14:02:50;12.70;99.90
52058;DHT22;38063;53.210;6.504;2023-11-19T14:05:17;12.00;99.90
52058;DHT22;38063;53.210;6.504;2023-11-19T14:07:43;12.00;99.90
52058;DHT22;38063;53.210;6.504;2023-11-19T14:10:10;12.00;99.90
52058;DHT22;38063;53.210;6.504;2023-11-19T14:12:38;12.00;99.90
52058;DHT22;38063;53.210;6.504;2023-11-19T14:15:05;11.90;99.90
52058;DHT22;38063;53.210;6.504;2023-11-19T14:17:32;11.90;99.90
52058;DHT22;38063;53.210;6.504;2023-11-19T14:19:58;12.00;99.90
52058;DHT22;38063;53.210;6.504;2023-11-19T14:22:23;11.90;99.90
52058;DHT22;38063;53.210;6.504;2023-11-19T14:24:50;11.90;99.90
52058;DHT22;38063;53.210;6.504;2023-11-19T14:27:16;11.80;99.90
52058;DHT22;38063;53.210;6.504;2023-11-19T14:29:43;11.80;99.90
52058;DHT22;38063;53.210;6.504;2023-11-19T14:32:10;11.40;99.90
52058;DHT22;38063;53.210;6.504;2023-11-19T14:34:36;11.80;99.90
52058;DHT22;38063;53.210;6.504;2023-11-19T14:37:01;11.70;99.90
52058;DHT22;38063;53.210;6.504;2023-11-19T14:39:27;11.70;99.90
52058;DHT22;38063;53.210;6.504;2023-11-19T14:41:54;11.60;99.90
52058;DHT22;38063;53.210;6.504;2023-11-19T14:44:23;11.60;99.90
52058;DHT22;38063;53.210;6.504;2023-11-19T14:46:49;11.50;99.90
52058;DHT22;38063;53.210;6.504;2023-11-19T14:49:15;11.70;99.90
52058;DHT22;38063;53.210;6.504;2023-11-19T14:51:41;11.50;99.90
52058;DHT22;38063;53.210;6.504;2023-11-19T14:54:07;11.50;99.90
52058;DHT22;38063;53.210;6.504;2023-11-19T14:56:32;11.50;99.90
52058;DHT22;38063;53.210;6.504;2023-11-19T14:58:58;11.40;99.90
52058;DHT22;38063;53.210;6.504;2023-11-19T15:01:24;11.40;99.90
52058;DHT22;38063;53.210;6.504;2023-11-19T15:03:51;11.40;99.90
52058;DHT22;38063;53.210;6.504;2023-11-19T15:06:16;11.30;99.90
52058;DHT22;38063;53.210;6.504;2023-11-19T15:08:42;11.30;99.90
52058;DHT22;38063;53.210;6.504;2023-11-19T15:11:08;11.20;99.90
52058;DHT22;38063;53.210;6.504;2023-11-19T15:13:35;11.20;99.90
52058;DHT22;38063;53.210;6.504;2023-11-19T15:16:03;11.20;99.90
52058;DHT22;38063;53.210;6.504;2023-11-19T15:18:31;11.10;99.90
52058;DHT22;38063;53.210;6.504;2023-11-19T15:20:57;11.10;99.90
52058;DHT22;38063;53.210;6.504;2023-11-19T15:23:22;11.10;99.90
52058;DHT22;38063;53.210;6.504;2023-11-19T15:25:48;11.10;99.90
52058;DHT22;38063;53.210;6.504;2023-11-19T15:28:15;11.10;99.90
52058;DHT22;38063;53.210;6.504;2023-11-19T15:30:40;11.20;99.90
52058;DHT22;38063;53.210;6.504;2023-11-19T15:33:06;11.20;99.90
52058;DHT22;38063;53.210;6.504;2023-11-19T15:35:34;11.20;99.90
52058;DHT22;38063;53.210;6.504;2023-11-19T15:38:00;11.20;99.90
52058;DHT22;38063;53.210;6.504;2023-11-19T15:40:25;11.20;99.90
52058;DHT22;38063;53.210;6.504;2023-11-19T15:42:52;11.20;99.90
52058;DHT22;38063;53.210;6.504;2023-11-19T15:45:20;11.20;99.90
52058;DHT22;38063;53.210;6.504;2023-11-19T15:47:46;11.20;99.90
52058;DHT22;38063;53.210;6.504;2023-11-19T15:50:12;11.20;99.90
52058;DHT22;38063;53.210;6.504;2023-11-19T15:52:37;11.20;99.90